Terminal Aerodrome Forecast
Issued by NWS

Home | Current Version | Previous Version | Text Only | Print | Product List | Glossary On
Versions: 1 2 3 4 5 6 7 8 9 10 11 12 13 14 15 16 17 18 19
041
FTAK31 PAJN 251739
TAFAKT
TAF
PAKT 251739Z 2518/2618 31010KT P6SM SCT030
      TEMPO 2518/2522 31010G20KT BKN025
     FM252200 32010KT P6SM FEW040 BKN060
     FM260600 32009KT P6SM SCT060
     FM261400 32008KT P6SM VCFG SCT015
      AMD LTD TO CLD VIS AND WIND 2606/2615=

USA.gov is the U.S. government's official web portal to all federal, state and local government web resources and services.